sensor_id;sensor_type;location;lat;lon;timestamp;P1;durP1;ratioP1;P2;durP2;ratioP2
3083;SDS011;1552;51.952;7.618;2022-09-02T00:01:35;1.75;;;1.20;;
3083;SDS011;1552;51.952;7.618;2022-09-02T00:04:03;2.55;;;1.23;;
3083;SDS011;1552;51.952;7.618;2022-09-02T00:06:30;5.72;;;1.98;;
3083;SDS011;1552;51.952;7.618;2022-09-02T00:08:57;4.18;;;1.80;;
3083;SDS011;1552;51.952;7.618;2022-09-02T00:11:24;3.13;;;1.40;;
3083;SDS011;1552;51.952;7.618;2022-09-02T00:13:53;4.13;;;1.25;;
3083;SDS011;1552;51.952;7.618;2022-09-02T00:16:19;3.08;;;1.00;;
3083;SDS011;1552;51.952;7.618;2022-09-02T00:18:48;2.53;;;1.00;;
3083;SDS011;1552;51.952;7.618;2022-09-02T00:21:15;2.38;;;0.82;;
3083;SDS011;1552;51.952;7.618;2022-09-02T00:23:42;3.55;;;0.90;;
3083;SDS011;1552;51.952;7.618;2022-09-02T00:26:09;1.13;;;0.90;;
3083;SDS011;1552;51.952;7.618;2022-09-02T00:28:36;2.08;;;1.05;;
3083;SDS011;1552;51.952;7.618;2022-09-02T00:31:04;1.15;;;1.00;;
3083;SDS011;1552;51.952;7.618;2022-09-02T00:33:31;1.48;;;1.05;;
3083;SDS011;1552;51.952;7.618;2022-09-02T00:35:57;3.80;;;1.20;;
3083;SDS011;1552;51.952;7.618;2022-09-02T00:38:24;3.15;;;0.90;;
3083;SDS011;1552;51.952;7.618;2022-09-02T00:40:50;1.58;;;1.20;;
3083;SDS011;1552;51.952;7.618;2022-09-02T00:43:22;2.85;;;0.80;;
3083;SDS011;1552;51.952;7.618;2022-09-02T00:45:48;2.63;;;1.08;;
3083;SDS011;1552;51.952;7.618;2022-09-02T00:48:16;2.90;;;1.00;;
3083;SDS011;1552;51.952;7.618;2022-09-02T00:50:42;1.98;;;0.90;;
3083;SDS011;1552;51.952;7.618;2022-09-02T00:53:08;1.13;;;0.93;;
3083;SDS011;1552;51.952;7.618;2022-09-02T00:55:39;2.80;;;0.98;;
3083;SDS011;1552;51.952;7.618;2022-09-02T00:58:07;1.27;;;0.88;;
3083;SDS011;1552;51.952;7.618;2022-09-02T01:00:35;3.42;;;1.10;;
3083;SDS011;1552;51.952;7.618;2022-09-02T01:03:05;3.20;;;1.10;;
3083;SDS011;1552;51.952;7.618;2022-09-02T01:05:33;2.17;;;1.10;;
3083;SDS011;1552;51.952;7.618;2022-09-02T01:08:00;1.60;;;0.70;;
3083;SDS011;1552;51.952;7.618;2022-09-02T01:10:27;2.25;;;1.05;;
3083;SDS011;1552;51.952;7.618;2022-09-02T01:12:54;1.58;;;0.98;;
3083;SDS011;1552;51.952;7.618;2022-09-02T01:15:22;2.75;;;1.10;;
3083;SDS011;1552;51.952;7.618;2022-09-02T01:17:49;1.98;;;0.93;;
3083;SDS011;1552;51.952;7.618;2022-09-02T01:20:16;2.42;;;1.08;;
3083;SDS011;1552;51.952;7.618;2022-09-02T01:22:44;2.00;;;0.90;;
3083;SDS011;1552;51.952;7.618;2022-09-02T01:25:12;1.25;;;0.90;;
3083;SDS011;1552;51.952;7.618;2022-09-02T01:27:39;1.38;;;1.00;;
3083;SDS011;1552;51.952;7.618;2022-09-02T01:30:06;2.40;;;0.80;;
3083;SDS011;1552;51.952;7.618;2022-09-02T01:32:33;3.55;;;1.10;;
3083;SDS011;1552;51.952;7.618;2022-09-02T01:34:59;7.72;;;1.00;;
3083;SDS011;1552;51.952;7.618;2022-09-02T01:37:26;3.28;;;0.90;;
3083;SDS011;1552;51.952;7.618;2022-09-02T01:39:53;2.03;;;1.10;;
3083;SDS011;1552;51.952;7.618;2022-09-02T01:42:21;0.85;;;0.85;;
3083;SDS011;1552;51.952;7.618;2022-09-02T01:44:47;3.00;;;1.10;;
3083;SDS011;1552;51.952;7.618;2022-09-02T01:47:14;1.95;;;1.00;;
3083;SDS011;1552;51.952;7.618;2022-09-02T01:49:41;2.47;;;0.90;;
3083;SDS011;1552;51.952;7.618;2022-09-02T01:52:08;2.13;;;0.90;;
3083;SDS011;1552;51.952;7.618;2022-09-02T01:54:34;1.45;;;1.02;;
3083;SDS011;1552;51.952;7.618;2022-09-02T01:57:02;3.60;;;1.10;;
3083;SDS011;1552;51.952;7.618;2022-09-02T01:59:29;2.80;;;1.20;;
3083;SDS011;1552;51.952;7.618;2022-09-02T02:01:55;2.57;;;1.33;;
3083;SDS011;1552;51.952;7.618;2022-09-02T02:04:22;3.13;;;0.90;;
3083;SDS011;1552;51.952;7.618;2022-09-02T02:06:49;2.22;;;1.10;;
3083;SDS011;1552;51.952;7.618;2022-09-02T02:09:16;1.67;;;0.97;;
3083;SDS011;1552;51.952;7.618;2022-09-02T02:11:43;5.78;;;1.20;;
3083;SDS011;1552;51.952;7.618;2022-09-02T02:14:10;3.27;;;1.10;;
3083;SDS011;1552;51.952;7.618;2022-09-02T02:16:37;3.63;;;1.00;;
3083;SDS011;1552;51.952;7.618;2022-09-02T02:19:04;1.05;;;0.90;;
3083;SDS011;1552;51.952;7.618;2022-09-02T02:21:30;1.20;;;0.90;;
3083;SDS011;1552;51.952;7.618;2022-09-02T02:23:57;3.00;;;1.00;;
3083;SDS011;1552;51.952;7.618;2022-09-02T02:26:25;1.27;;;0.97;;
3083;SDS011;1552;51.952;7.618;2022-09-02T02:28:51;1.17;;;0.82;;
3083;SDS011;1552;51.952;7.618;2022-09-02T02:31:19;2.20;;;1.10;;
3083;SDS011;1552;51.952;7.618;2022-09-02T02:33:45;1.00;;;0.90;;
3083;SDS011;1552;51.952;7.618;2022-09-02T02:36:12;1.08;;;0.98;;
3083;SDS011;1552;51.952;7.618;2022-09-02T02:38:39;2.47;;;0.90;;
3083;SDS011;1552;51.952;7.618;2022-09-02T02:41:05;1.02;;;0.82;;
3083;SDS011;1552;51.952;7.618;2022-09-02T02:43:34;2.20;;;1.02;;
3083;SDS011;1552;51.952;7.618;2022-09-02T02:46:00;1.42;;;0.93;;
3083;SDS011;1552;51.952;7.618;2022-09-02T02:48:28;2.83;;;0.90;;
3083;SDS011;1552;51.952;7.618;2022-09-02T02:50:54;2.37;;;1.50;;
3083;SDS011;1552;51.952;7.618;2022-09-02T02:53:21;1.63;;;1.33;;
3083;SDS011;1552;51.952;7.618;2022-09-02T02:55:47;1.08;;;0.85;;
3083;SDS011;1552;51.952;7.618;2022-09-02T02:58:13;1.23;;;1.10;;
3083;SDS011;1552;51.952;7.618;2022-09-02T03:00:40;3.27;;;1.10;;
3083;SDS011;1552;51.952;7.618;2022-09-02T03:03:07;1.43;;;0.90;;
3083;SDS011;1552;51.952;7.618;2022-09-02T03:05:35;1.10;;;0.93;;
3083;SDS011;1552;51.952;7.618;2022-09-02T03:08:02;3.53;;;1.38;;
3083;SDS011;1552;51.952;7.618;2022-09-02T03:10:29;1.30;;;1.02;;
3083;SDS011;1552;51.952;7.618;2022-09-02T03:12:56;2.63;;;1.40;;
3083;SDS011;1552;51.952;7.618;2022-09-02T03:15:24;3.03;;;1.10;;
3083;SDS011;1552;51.952;7.618;2022-09-02T03:17:51;2.95;;;1.10;;
3083;SDS011;1552;51.952;7.618;2022-09-02T03:20:18;0.83;;;0.77;;
3083;SDS011;1552;51.952;7.618;2022-09-02T03:22:46;1.30;;;1.20;;
3083;SDS011;1552;51.952;7.618;2022-09-02T03:25:14;1.90;;;1.10;;
3083;SDS011;1552;51.952;7.618;2022-09-02T03:27:41;1.20;;;0.80;;
3083;SDS011;1552;51.952;7.618;2022-09-02T03:30:11;1.30;;;0.87;;
3083;SDS011;1552;51.952;7.618;2022-09-02T03:32:38;2.33;;;0.83;;
3083;SDS011;1552;51.952;7.618;2022-09-02T03:35:05;3.23;;;1.23;;
3083;SDS011;1552;51.952;7.618;2022-09-02T03:37:32;2.50;;;1.03;;
3083;SDS011;1552;51.952;7.618;2022-09-02T03:40:01;1.33;;;0.90;;
3083;SDS011;1552;51.952;7.618;2022-09-02T03:42:28;1.10;;;0.98;;
3083;SDS011;1552;51.952;7.618;2022-09-02T03:44:55;2.13;;;1.13;;
3083;SDS011;1552;51.952;7.618;2022-09-02T03:47:21;3.63;;;1.23;;
3083;SDS011;1552;51.952;7.618;2022-09-02T03:49:47;1.93;;;1.10;;
3083;SDS011;1552;51.952;7.618;2022-09-02T03:52:14;2.13;;;0.90;;
3083;SDS011;1552;51.952;7.618;2022-09-02T03:54:41;3.47;;;1.20;;
3083;SDS011;1552;51.952;7.618;2022-09-02T03:57:10;3.05;;;1.10;;
3083;SDS011;1552;51.952;7.618;2022-09-02T03:59:37;2.17;;;1.40;;
3083;SDS011;1552;51.952;7.618;2022-09-02T04:02:03;1.73;;;1.20;;
3083;SDS011;1552;51.952;7.618;2022-09-02T04:04:30;1.98;;;1.10;;
3083;SDS011;1552;51.952;7.618;2022-09-02T04:06:56;1.00;;;0.90;;
3083;SDS011;1552;51.952;7.618;2022-09-02T04:09:23;2.72;;;1.20;;
3083;SDS011;1552;51.952;7.618;2022-09-02T04:11:50;1.25;;;0.98;;
3083;SDS011;1552;51.952;7.618;2022-09-02T04:14:17;2.03;;;1.27;;
3083;SDS011;1552;51.952;7.618;2022-09-02T04:16:44;1.70;;;1.42;;
3083;SDS011;1552;51.952;7.618;2022-09-02T04:19:10;1.63;;;1.00;;
3083;SDS011;1552;51.952;7.618;2022-09-02T04:21:38;1.30;;;1.20;;
3083;SDS011;1552;51.952;7.618;2022-09-02T04:24:05;7.10;;;1.35;;
3083;SDS011;1552;51.952;7.618;2022-09-02T04:26:31;1.97;;;0.90;;
3083;SDS011;1552;51.952;7.618;2022-09-02T04:28:58;5.63;;;1.13;;
3083;SDS011;1552;51.952;7.618;2022-09-02T04:31:26;4.55;;;1.20;;
3083;SDS011;1552;51.952;7.618;2022-09-02T04:33:53;5.03;;;1.20;;
3083;SDS011;1552;51.952;7.618;2022-09-02T04:36:21;2.13;;;1.20;;
3083;SDS011;1552;51.952;7.618;2022-09-02T04:38:47;3.00;;;1.30;;
3083;SDS011;1552;51.952;7.618;2022-09-02T04:41:14;2.53;;;1.23;;
3083;SDS011;1552;51.952;7.618;2022-09-02T04:43:41;3.42;;;1.20;;
3083;SDS011;1552;51.952;7.618;2022-09-02T04:46:08;3.17;;;1.20;;
3083;SDS011;1552;51.952;7.618;2022-09-02T04:48:36;1.00;;;1.00;;
3083;SDS011;1552;51.952;7.618;2022-09-02T04:51:03;1.10;;;0.90;;
3083;SDS011;1552;51.952;7.618;2022-09-02T04:53:30;1.97;;;1.00;;
3083;SDS011;1552;51.952;7.618;2022-09-02T04:55:56;2.80;;;1.20;;
3083;SDS011;1552;51.952;7.618;2022-09-02T04:58:23;3.07;;;0.90;;
3083;SDS011;1552;51.952;7.618;2022-09-02T05:00:50;2.07;;;1.50;;
3083;SDS011;1552;51.952;7.618;2022-09-02T05:03:16;3.90;;;1.20;;
3083;SDS011;1552;51.952;7.618;2022-09-02T05:05:45;2.77;;;1.10;;
3083;SDS011;1552;51.952;7.618;2022-09-02T05:08:12;3.90;;;1.20;;
3083;SDS011;1552;51.952;7.618;2022-09-02T05:10:38;1.63;;;1.10;;
3083;SDS011;1552;51.952;7.618;2022-09-02T05:13:05;2.90;;;1.30;;
3083;SDS011;1552;51.952;7.618;2022-09-02T05:15:31;3.10;;;1.40;;
3083;SDS011;1552;51.952;7.618;2022-09-02T05:17:59;1.67;;;1.20;;
3083;SDS011;1552;51.952;7.618;2022-09-02T05:20:25;2.57;;;1.17;;
3083;SDS011;1552;51.952;7.618;2022-09-02T05:22:53;1.80;;;1.27;;
3083;SDS011;1552;51.952;7.618;2022-09-02T05:25:20;4.50;;;1.10;;
3083;SDS011;1552;51.952;7.618;2022-09-02T05:27:46;2.53;;;1.10;;
3083;SDS011;1552;51.952;7.618;2022-09-02T05:30:14;2.97;;;1.33;;
3083;SDS011;1552;51.952;7.618;2022-09-02T05:32:40;4.00;;;1.20;;
3083;SDS011;1552;51.952;7.618;2022-09-02T05:35:07;1.30;;;1.20;;
3083;SDS011;1552;51.952;7.618;2022-09-02T05:37:33;3.00;;;1.03;;
3083;SDS011;1552;51.952;7.618;2022-09-02T05:40:01;1.20;;;1.10;;
3083;SDS011;1552;51.952;7.618;2022-09-02T05:42:28;2.40;;;1.40;;
3083;SDS011;1552;51.952;7.618;2022-09-02T05:44:55;4.30;;;1.40;;
3083;SDS011;1552;51.952;7.618;2022-09-02T05:47:22;3.23;;;1.40;;
3083;SDS011;1552;51.952;7.618;2022-09-02T05:49:49;3.10;;;1.23;;
3083;SDS011;1552;51.952;7.618;2022-09-02T05:52:16;1.77;;;1.33;;
3083;SDS011;1552;51.952;7.618;2022-09-02T05:54:42;2.57;;;1.40;;
3083;SDS011;1552;51.952;7.618;2022-09-02T05:57:10;4.83;;;1.50;;
3083;SDS011;1552;51.952;7.618;2022-09-02T05:59:37;3.00;;;1.60;;
3083;SDS011;1552;51.952;7.618;2022-09-02T06:02:06;4.20;;;1.40;;
3083;SDS011;1552;51.952;7.618;2022-09-02T06:04:35;1.67;;;1.10;;
3083;SDS011;1552;51.952;7.618;2022-09-02T06:07:02;2.23;;;1.20;;
3083;SDS011;1552;51.952;7.618;2022-09-02T06:09:28;1.93;;;1.37;;
3083;SDS011;1552;51.952;7.618;2022-09-02T06:11:54;1.93;;;1.30;;
3083;SDS011;1552;51.952;7.618;2022-09-02T06:14:23;2.60;;;1.57;;
3083;SDS011;1552;51.952;7.618;2022-09-02T06:16:52;4.83;;;1.70;;
3083;SDS011;1552;51.952;7.618;2022-09-02T06:19:19;3.57;;;1.57;;
3083;SDS011;1552;51.952;7.618;2022-09-02T06:21:46;3.00;;;1.50;;
3083;SDS011;1552;51.952;7.618;2022-09-02T06:24:12;4.07;;;1.80;;
3083;SDS011;1552;51.952;7.618;2022-09-02T06:26:39;2.05;;;1.30;;
3083;SDS011;1552;51.952;7.618;2022-09-02T06:29:06;4.37;;;1.40;;
3083;SDS011;1552;51.952;7.618;2022-09-02T06:31:34;2.10;;;1.42;;
3083;SDS011;1552;51.952;7.618;2022-09-02T06:34:01;3.17;;;1.90;;
3083;SDS011;1552;51.952;7.618;2022-09-02T06:36:28;2.63;;;1.30;;
3083;SDS011;1552;51.952;7.618;2022-09-02T06:38:56;5.60;;;1.90;;
3083;SDS011;1552;51.952;7.618;2022-09-02T06:41:23;5.43;;;2.15;;
3083;SDS011;1552;51.952;7.618;2022-09-02T06:43:51;3.93;;;1.73;;
3083;SDS011;1552;51.952;7.618;2022-09-02T06:46:20;4.80;;;1.53;;
3083;SDS011;1552;51.952;7.618;2022-09-02T06:48:48;3.60;;;1.60;;
3083;SDS011;1552;51.952;7.618;2022-09-02T06:51:15;6.10;;;1.80;;
3083;SDS011;1552;51.952;7.618;2022-09-02T06:53:42;4.40;;;1.50;;
3083;SDS011;1552;51.952;7.618;2022-09-02T06:56:08;4.88;;;1.50;;
3083;SDS011;1552;51.952;7.618;2022-09-02T06:58:34;2.50;;;1.60;;
3083;SDS011;1552;51.952;7.618;2022-09-02T07:01:01;5.38;;;1.75;;
3083;SDS011;1552;51.952;7.618;2022-09-02T07:03:27;2.78;;;1.65;;
3083;SDS011;1552;51.952;7.618;2022-09-02T07:06:13;3.13;;;1.70;;
3083;SDS011;1552;51.952;7.618;2022-09-02T07:08:40;1.95;;;1.70;;
3083;SDS011;1552;51.952;7.618;2022-09-02T07:11:07;5.03;;;2.07;;
3083;SDS011;1552;51.952;7.618;2022-09-02T07:13:33;6.15;;;2.00;;
3083;SDS011;1552;51.952;7.618;2022-09-02T07:16:01;3.47;;;1.33;;
3083;SDS011;1552;51.952;7.618;2022-09-02T07:18:27;3.33;;;2.05;;
3083;SDS011;1552;51.952;7.618;2022-09-02T07:20:53;2.72;;;2.10;;
3083;SDS011;1552;51.952;7.618;2022-09-02T07:23:21;3.33;;;1.52;;
3083;SDS011;1552;51.952;7.618;2022-09-02T07:25:48;3.22;;;1.80;;
3083;SDS011;1552;51.952;7.618;2022-09-02T07:28:14;2.60;;;1.42;;
3083;SDS011;1552;51.952;7.618;2022-09-02T07:30:41;4.57;;;2.20;;
3083;SDS011;1552;51.952;7.618;2022-09-02T07:33:07;5.03;;;1.25;;
3083;SDS011;1552;51.952;7.618;2022-09-02T07:35:35;5.38;;;1.75;;
3083;SDS011;1552;51.952;7.618;2022-09-02T07:38:03;3.33;;;1.65;;
3083;SDS011;1552;51.952;7.618;2022-09-02T07:40:31;2.72;;;1.42;;
3083;SDS011;1552;51.952;7.618;2022-09-02T07:43:00;3.20;;;1.30;;
3083;SDS011;1552;51.952;7.618;2022-09-02T07:45:31;4.38;;;1.67;;
3083;SDS011;1552;51.952;7.618;2022-09-02T07:47:57;5.50;;;1.60;;
3083;SDS011;1552;51.952;7.618;2022-09-02T07:50:24;4.07;;;1.55;;
3083;SDS011;1552;51.952;7.618;2022-09-02T07:52:52;3.50;;;1.20;;
3083;SDS011;1552;51.952;7.618;2022-09-02T07:55:18;1.73;;;1.58;;
3083;SDS011;1552;51.952;7.618;2022-09-02T07:57:47;3.83;;;1.60;;
3083;SDS011;1552;51.952;7.618;2022-09-02T08:00:16;2.85;;;1.35;;
3083;SDS011;1552;51.952;7.618;2022-09-02T08:02:44;3.97;;;1.90;;
3083;SDS011;1552;51.952;7.618;2022-09-02T08:05:10;3.60;;;1.33;;
3083;SDS011;1552;51.952;7.618;2022-09-02T08:07:37;3.78;;;1.42;;
3083;SDS011;1552;51.952;7.618;2022-09-02T08:10:04;5.45;;;2.10;;
3083;SDS011;1552;51.952;7.618;2022-09-02T08:12:33;2.55;;;1.60;;
3083;SDS011;1552;51.952;7.618;2022-09-02T08:15:01;3.00;;;2.00;;
3083;SDS011;1552;51.952;7.618;2022-09-02T08:17:28;2.08;;;1.42;;
3083;SDS011;1552;51.952;7.618;2022-09-02T08:19:54;3.08;;;1.50;;
3083;SDS011;1552;51.952;7.618;2022-09-02T08:22:20;3.38;;;1.30;;
3083;SDS011;1552;51.952;7.618;2022-09-02T08:24:47;3.30;;;1.50;;
3083;SDS011;1552;51.952;7.618;2022-09-02T08:27:13;2.88;;;1.80;;
3083;SDS011;1552;51.952;7.618;2022-09-02T08:29:39;2.88;;;1.45;;
3083;SDS011;1552;51.952;7.618;2022-09-02T08:32:08;7.88;;;1.48;;
3083;SDS011;1552;51.952;7.618;2022-09-02T08:34:34;4.38;;;2.10;;
3083;SDS011;1552;51.952;7.618;2022-09-02T08:37:01;2.72;;;1.65;;
3083;SDS011;1552;51.952;7.618;2022-09-02T08:39:27;3.90;;;1.70;;
3083;SDS011;1552;51.952;7.618;2022-09-02T08:41:57;4.30;;;1.50;;
3083;SDS011;1552;51.952;7.618;2022-09-02T08:44:26;3.30;;;1.55;;
3083;SDS011;1552;51.952;7.618;2022-09-02T08:46:54;5.10;;;1.90;;
3083;SDS011;1552;51.952;7.618;2022-09-02T08:49:24;2.42;;;1.30;;
3083;SDS011;1552;51.952;7.618;2022-09-02T08:51:54;1.30;;;1.20;;
3083;SDS011;1552;51.952;7.618;2022-09-02T08:54:24;2.38;;;1.50;;
3083;SDS011;1552;51.952;7.618;2022-09-02T08:56:51;3.05;;;1.65;;
3083;SDS011;1552;51.952;7.618;2022-09-02T08:59:17;3.97;;;1.75;;
3083;SDS011;1552;51.952;7.618;2022-09-02T09:01:47;3.25;;;1.65;;
3083;SDS011;1552;51.952;7.618;2022-09-02T09:04:17;3.45;;;1.80;;
3083;SDS011;1552;51.952;7.618;2022-09-02T09:06:51;4.43;;;1.70;;
3083;SDS011;1552;51.952;7.618;2022-09-02T09:09:21;6.30;;;1.90;;
3083;SDS011;1552;51.952;7.618;2022-09-02T09:11:53;4.47;;;1.58;;
3083;SDS011;1552;51.952;7.618;2022-09-02T09:14:24;2.88;;;1.30;;
3083;SDS011;1552;51.952;7.618;2022-09-02T09:16:54;4.10;;;1.67;;
3083;SDS011;1552;51.952;7.618;2022-09-02T09:19:23;1.63;;;1.42;;
3083;SDS011;1552;51.952;7.618;2022-09-02T09:21:53;1.48;;;1.10;;
3083;SDS011;1552;51.952;7.618;2022-09-02T09:24:24;2.47;;;1.33;;
3083;SDS011;1552;51.952;7.618;2022-09-02T09:26:52;3.80;;;1.63;;
3083;SDS011;1552;51.952;7.618;2022-09-02T09:29:18;3.33;;;1.45;;
3083;SDS011;1552;51.952;7.618;2022-09-02T09:31:45;5.03;;;1.92;;
3083;SDS011;1552;51.952;7.618;2022-09-02T09:34:15;5.32;;;1.90;;
3083;SDS011;1552;51.952;7.618;2022-09-02T09:36:43;3.92;;;2.08;;
3083;SDS011;1552;51.952;7.618;2022-09-02T09:39:21;3.42;;;1.70;;
3083;SDS011;1552;51.952;7.618;2022-09-02T09:41:49;3.38;;;1.45;;
3083;SDS011;1552;51.952;7.618;2022-09-02T09:47:03;6.30;;;1.67;;
3083;SDS011;1552;51.952;7.618;2022-09-02T09:49:30;3.97;;;1.30;;
3083;SDS011;1552;51.952;7.618;2022-09-02T09:51:57;4.45;;;1.33;;
3083;SDS011;1552;51.952;7.618;2022-09-02T09:54:26;3.58;;;1.77;;
3083;SDS011;1552;51.952;7.618;2022-09-02T09:56:52;6.05;;;2.08;;
3083;SDS011;1552;51.952;7.618;2022-09-02T09:59:35;6.43;;;2.83;;
3083;SDS011;1552;51.952;7.618;2022-09-02T10:02:02;7.35;;;2.63;;
3083;SDS011;1552;51.952;7.618;2022-09-02T10:04:29;3.97;;;1.83;;
3083;SDS011;1552;51.952;7.618;2022-09-02T10:06:56;2.85;;;1.83;;
3083;SDS011;1552;51.952;7.618;2022-09-02T10:09:27;3.30;;;2.25;;
3083;SDS011;1552;51.952;7.618;2022-09-02T10:11:55;5.00;;;1.52;;
3083;SDS011;1552;51.952;7.618;2022-09-02T10:14:22;5.00;;;1.80;;
3083;SDS011;1552;51.952;7.618;2022-09-02T10:16:51;2.75;;;1.60;;
3083;SDS011;1552;51.952;7.618;2022-09-02T10:19:23;2.42;;;1.42;;
3083;SDS011;1552;51.952;7.618;2022-09-02T10:21:59;2.67;;;1.45;;
3083;SDS011;1552;51.952;7.618;2022-09-02T10:24:39;2.03;;;1.25;;
3083;SDS011;1552;51.952;7.618;2022-09-02T10:27:09;6.85;;;1.65;;
3083;SDS011;1552;51.952;7.618;2022-09-02T10:29:53;4.53;;;1.50;;
3083;SDS011;1552;51.952;7.618;2022-09-02T10:32:21;4.05;;;1.40;;
3083;SDS011;1552;51.952;7.618;2022-09-02T10:34:53;3.38;;;1.60;;
3083;SDS011;1552;51.952;7.618;2022-09-02T10:37:23;3.33;;;2.10;;
3083;SDS011;1552;51.952;7.618;2022-09-02T10:40:03;4.25;;;2.40;;
3083;SDS011;1552;51.952;7.618;2022-09-02T10:42:33;3.78;;;1.75;;
3083;SDS011;1552;51.952;7.618;2022-09-02T10:45:06;2.53;;;1.73;;
3083;SDS011;1552;51.952;7.618;2022-09-02T10:47:38;5.97;;;1.92;;
3083;SDS011;1552;51.952;7.618;2022-09-02T10:50:08;4.05;;;1.58;;
3083;SDS011;1552;51.952;7.618;2022-09-02T10:52:43;2.45;;;1.50;;
3083;SDS011;1552;51.952;7.618;2022-09-02T10:55:15;3.88;;;2.78;;
3083;SDS011;1552;51.952;7.618;2022-09-02T10:57:46;4.57;;;1.75;;
3083;SDS011;1552;51.952;7.618;2022-09-02T11:00:14;2.33;;;1.40;;
3083;SDS011;1552;51.952;7.618;2022-09-02T11:02:43;2.85;;;1.70;;
3083;SDS011;1552;51.952;7.618;2022-09-02T11:05:13;2.40;;;1.80;;
3083;SDS011;1552;51.952;7.618;2022-09-02T11:07:41;3.70;;;1.60;;
3083;SDS011;1552;51.952;7.618;2022-09-02T11:10:11;4.22;;;1.80;;
3083;SDS011;1552;51.952;7.618;2022-09-02T11:12:44;4.82;;;1.40;;
3083;SDS011;1552;51.952;7.618;2022-09-02T11:15:14;3.47;;;1.70;;
3083;SDS011;1552;51.952;7.618;2022-09-02T11:17:43;2.88;;;1.55;;
3083;SDS011;1552;51.952;7.618;2022-09-02T11:20:13;1.77;;;1.50;;
3083;SDS011;1552;51.952;7.618;2022-09-02T11:22:43;2.78;;;1.80;;
3083;SDS011;1552;51.952;7.618;2022-09-02T11:25:11;2.65;;;1.60;;
3083;SDS011;1552;51.952;7.618;2022-09-02T11:27:42;2.50;;;1.60;;
3083;SDS011;1552;51.952;7.618;2022-09-02T11:30:14;4.85;;;1.48;;
3083;SDS011;1552;51.952;7.618;2022-09-02T11:32:43;2.80;;;1.70;;
3083;SDS011;1552;51.952;7.618;2022-09-02T11:35:13;3.40;;;1.80;;
3083;SDS011;1552;51.952;7.618;2022-09-02T11:37:42;3.42;;;1.95;;
3083;SDS011;1552;51.952;7.618;2022-09-02T11:40:11;2.97;;;1.67;;
3083;SDS011;1552;51.952;7.618;2022-09-02T11:42:47;3.55;;;1.60;;
3083;SDS011;1552;51.952;7.618;2022-09-02T11:45:28;1.70;;;1.17;;
3083;SDS011;1552;51.952;7.618;2022-09-02T11:48:04;3.00;;;1.30;;
3083;SDS011;1552;51.952;7.618;2022-09-02T11:50:46;2.63;;;1.70;;
3083;SDS011;1552;51.952;7.618;2022-09-02T11:53:18;2.90;;;1.60;;
3083;SDS011;1552;51.952;7.618;2022-09-02T11:55:49;3.40;;;1.58;;
3083;SDS011;1552;51.952;7.618;2022-09-02T11:58:32;3.35;;;1.55;;
3083;SDS011;1552;51.952;7.618;2022-09-02T12:01:03;1.77;;;1.63;;
3083;SDS011;1552;51.952;7.618;2022-09-02T12:03:30;3.08;;;1.77;;
3083;SDS011;1552;51.952;7.618;2022-09-02T12:06:05;1.73;;;1.52;;
3083;SDS011;1552;51.952;7.618;2022-09-02T12:11:38;1.75;;;1.65;;
3083;SDS011;1552;51.952;7.618;2022-09-02T12:14:07;4.35;;;1.65;;
3083;SDS011;1552;51.952;7.618;2022-09-02T12:16:39;2.20;;;1.40;;
3083;SDS011;1552;51.952;7.618;2022-09-02T12:19:16;1.77;;;1.25;;
3083;SDS011;1552;51.952;7.618;2022-09-02T12:24:47;4.53;;;2.20;;
3083;SDS011;1552;51.952;7.618;2022-09-02T12:27:21;3.92;;;2.10;;
3083;SDS011;1552;51.952;7.618;2022-09-02T12:29:49;2.63;;;1.40;;
3083;SDS011;1552;51.952;7.618;2022-09-02T12:35:08;4.13;;;1.83;;
3083;SDS011;1552;51.952;7.618;2022-09-02T12:37:48;2.20;;;1.40;;
3083;SDS011;1552;51.952;7.618;2022-09-02T12:40:16;3.08;;;1.60;;
3083;SDS011;1552;51.952;7.618;2022-09-02T12:42:44;2.80;;;1.50;;
3083;SDS011;1552;51.952;7.618;2022-09-02T12:45:13;3.10;;;1.27;;
3083;SDS011;1552;51.952;7.618;2022-09-02T12:47:48;3.88;;;1.77;;
3083;SDS011;1552;51.952;7.618;2022-09-02T12:50:20;2.78;;;1.48;;
3083;SDS011;1552;51.952;7.618;2022-09-02T12:52:49;1.73;;;1.40;;
3083;SDS011;1552;51.952;7.618;2022-09-02T12:55:20;4.43;;;1.73;;
3083;SDS011;1552;51.952;7.618;2022-09-02T12:57:48;3.50;;;1.30;;
3083;SDS011;1552;51.952;7.618;2022-09-02T13:00:25;4.25;;;2.03;;
3083;SDS011;1552;51.952;7.618;2022-09-02T13:02:59;3.53;;;1.27;;
3083;SDS011;1552;51.952;7.618;2022-09-02T13:05:28;3.13;;;1.90;;
3083;SDS011;1552;51.952;7.618;2022-09-02T13:10:54;1.83;;;1.38;;
3083;SDS011;1552;51.952;7.618;2022-09-02T13:13:38;2.28;;;1.23;;
3083;SDS011;1552;51.952;7.618;2022-09-02T13:16:14;3.17;;;1.30;;
3083;SDS011;1552;51.952;7.618;2022-09-02T13:18:45;4.43;;;2.75;;
3083;SDS011;1552;51.952;7.618;2022-09-02T13:21:21;2.65;;;1.88;;
3083;SDS011;1552;51.952;7.618;2022-09-02T13:24:00;4.35;;;1.67;;
3083;SDS011;1552;51.952;7.618;2022-09-02T13:26:39;3.20;;;1.30;;
3083;SDS011;1552;51.952;7.618;2022-09-02T13:29:27;3.00;;;1.75;;
3083;SDS011;1552;51.952;7.618;2022-09-02T13:32:09;1.50;;;1.13;;
3083;SDS011;1552;51.952;7.618;2022-09-02T13:34:39;3.47;;;1.70;;
3083;SDS011;1552;51.952;7.618;2022-09-02T13:37:06;4.22;;;2.60;;
3083;SDS011;1552;51.952;7.618;2022-09-02T13:39:51;1.88;;;1.50;;
3083;SDS011;1552;51.952;7.618;2022-09-02T13:42:18;1.77;;;1.40;;
3083;SDS011;1552;51.952;7.618;2022-09-02T13:44:47;1.40;;;1.30;;
3083;SDS011;1552;51.952;7.618;2022-09-02T13:47:16;2.80;;;1.33;;
3083;SDS011;1552;51.952;7.618;2022-09-02T13:49:44;2.35;;;1.45;;
3083;SDS011;1552;51.952;7.618;2022-09-02T13:52:12;5.03;;;1.50;;
3083;SDS011;1552;51.952;7.618;2022-09-02T13:54:41;2.03;;;1.80;;
3083;SDS011;1552;51.952;7.618;2022-09-02T13:57:09;2.45;;;1.60;;
3083;SDS011;1552;51.952;7.618;2022-09-02T13:59:38;2.25;;;1.45;;
3083;SDS011;1552;51.952;7.618;2022-09-02T14:02:20;2.13;;;1.63;;
3083;SDS011;1552;51.952;7.618;2022-09-02T14:04:47;4.20;;;1.75;;
3083;SDS011;1552;51.952;7.618;2022-09-02T14:07:14;2.63;;;1.40;;
3083;SDS011;1552;51.952;7.618;2022-09-02T14:09:41;2.65;;;1.58;;
3083;SDS011;1552;51.952;7.618;2022-09-02T14:12:09;1.63;;;1.20;;
3083;SDS011;1552;51.952;7.618;2022-09-02T14:14:35;1.90;;;1.60;;
3083;SDS011;1552;51.952;7.618;2022-09-02T14:17:17;2.08;;;1.63;;
3083;SDS011;1552;51.952;7.618;2022-09-02T14:19:45;3.40;;;1.50;;
3083;SDS011;1552;51.952;7.618;2022-09-02T14:22:20;3.58;;;1.95;;
3083;SDS011;1552;51.952;7.618;2022-09-02T14:24:47;3.90;;;1.92;;
3083;SDS011;1552;51.952;7.618;2022-09-02T14:27:15;1.98;;;1.80;;
3083;SDS011;1552;51.952;7.618;2022-09-02T14:29:42;2.13;;;1.63;;
3083;SDS011;1552;51.952;7.618;2022-09-02T14:32:10;2.85;;;1.23;;
3083;SDS011;1552;51.952;7.618;2022-09-02T14:34:38;5.63;;;1.80;;
3083;SDS011;1552;51.952;7.618;2022-09-02T14:37:22;3.75;;;1.50;;
3083;SDS011;1552;51.952;7.618;2022-09-02T14:40:00;3.30;;;1.50;;
3083;SDS011;1552;51.952;7.618;2022-09-02T14:42:27;2.83;;;1.48;;
3083;SDS011;1552;51.952;7.618;2022-09-02T14:44:53;3.72;;;1.50;;
3083;SDS011;1552;51.952;7.618;2022-09-02T14:47:23;4.47;;;1.40;;
3083;SDS011;1552;51.952;7.618;2022-09-02T14:49:51;3.92;;;1.58;;
3083;SDS011;1552;51.952;7.618;2022-09-02T14:52:20;1.90;;;1.42;;
3083;SDS011;1552;51.952;7.618;2022-09-02T14:54:50;3.88;;;1.77;;
3083;SDS011;1552;51.952;7.618;2022-09-02T14:57:21;2.90;;;1.40;;
3083;SDS011;1552;51.952;7.618;2022-09-02T14:59:47;2.88;;;1.55;;
3083;SDS011;1552;51.952;7.618;2022-09-02T15:02:27;1.90;;;1.40;;
3083;SDS011;1552;51.952;7.618;2022-09-02T15:04:54;4.22;;;1.63;;
3083;SDS011;1552;51.952;7.618;2022-09-02T15:07:22;2.55;;;1.30;;
3083;SDS011;1552;51.952;7.618;2022-09-02T15:09:50;1.80;;;1.38;;
3083;SDS011;1552;51.952;7.618;2022-09-02T15:12:17;2.22;;;1.50;;
3083;SDS011;1552;51.952;7.618;2022-09-02T15:14:44;2.80;;;1.55;;
3083;SDS011;1552;51.952;7.618;2022-09-02T15:17:11;2.15;;;1.45;;
3083;SDS011;1552;51.952;7.618;2022-09-02T15:19:38;2.65;;;1.60;;
3083;SDS011;1552;51.952;7.618;2022-09-02T15:22:05;1.67;;;1.23;;
3083;SDS011;1552;51.952;7.618;2022-09-02T15:24:31;3.22;;;1.50;;
3083;SDS011;1552;51.952;7.618;2022-09-02T15:30:03;3.50;;;1.63;;
3083;SDS011;1552;51.952;7.618;2022-09-02T15:32:30;2.47;;;1.73;;
3083;SDS011;1552;51.952;7.618;2022-09-02T15:34:56;4.75;;;1.70;;
3083;SDS011;1552;51.952;7.618;2022-09-02T15:37:23;1.73;;;1.27;;
3083;SDS011;1552;51.952;7.618;2022-09-02T15:39:50;2.47;;;1.48;;
3083;SDS011;1552;51.952;7.618;2022-09-02T15:42:25;3.58;;;2.10;;